Terminal Aerodrome Forecast
Issued by NWS

Current Version | Previous Version | Text Only | Print | Product List | Glossary On
Versions: 1 2 3 4 5 6 7 8 9 10 11 12 13 14 15 16 17 18 19 20 21 22 23 24 25 26 27 28 29 30 31 32 33 34 35 36 37 38 39 40 41 42 43 44 45 46 47 48 49 50
000
FTUS41 KOKX 131740
TAFSWF
TAF
KSWF 131740Z 1318/1424 24008KT P6SM BKN050
     FM140200 17006KT P6SM VCSH BKN035
     FM140600 17006KT P6SM -SHRA BKN035
     FM141000 17006KT 5SM -SHRA VCTS BKN025CB
     FM141100 17006KT 5SM -SHRA VCTS BKN015CB
     FM141200 17006KT 5SM -SHRA VCTS OVC008CB
     FM141500 17007KT P6SM VCSH BKN015 PROB30 1418/1421 2SM TSRA BR
      BKN015CB
     FM142200 15007KT 5SM -SHRA BR BKN015 PROB30 1422/1424 2SM TSRA
      BR BKN015CB
     AMD NOT SKED=

USA.gov is the U.S. government's official web portal to all federal, state and local government web resources and services.